Time;durP1;ratioP1;P1;durP2;ratioP2;P2;SDS_P1;SDS_P2;PMS_P1;PMS_P2;Temp;Humidity;BMP_temperature;BMP_pressure;BME280_temperature;BME280_humidity;BME280_pressure;Samples;Min_cycle;Max_cycle;Signal;HPM_P1;HPM_P2
2022/05/17 00:00:00;;;;;;;7.05;4.28;;;16.00;17.00;;;;;;7365925;19;20015;-59
2022/05/17 00:02:33;;;;;;;10.77;4.00;;;15.90;17.70;;;;;;7370183;19;20011;-59
2022/05/17 00:05:04;;;;;;;8.38;4.20;;;15.90;18.30;;;;;;7369580;19;20011;-58
2022/05/17 00:07:34;;;;;;;8.10;3.75;;;16.00;18.50;;;;;;7363845;19;20474;-59
2022/05/17 00:10:04;;;;;;;7.95;3.90;;;15.90;18.20;;;;;;7367451;19;20502;-59
2022/05/17 00:12:34;;;;;;;8.07;3.88;;;15.90;18.20;;;;;;7387823;19;20017;-58
2022/05/17 00:15:04;;;;;;;7.20;3.97;;;15.90;17.60;;;;;;7365418;19;20014;-59
2022/05/17 00:17:37;;;;;;;7.90;3.78;;;16.00;17.10;;;;;;7363862;19;20010;-59
2022/05/17 00:20:08;;;;;;;4.90;3.53;;;16.00;17.20;;;;;;7366590;19;20082;-59
2022/05/17 00:22:38;;;;;;;5.97;3.58;;;16.00;16.70;;;;;;7367802;19;20014;-59
2022/05/17 00:25:10;;;;;;;6.60;3.88;;;15.90;16.40;;;;;;7366304;19;20523;-59
2022/05/17 00:27:40;;;;;;;5.80;3.58;;;16.00;16.40;;;;;;7384010;19;20022;-59
2022/05/17 00:30:12;;;;;;;5.57;3.28;;;16.00;15.80;;;;;;7364500;19;20487;-59
2022/05/17 00:32:44;;;;;;;7.05;4.13;;;16.00;15.40;;;;;;7367345;19;20236;-59
2022/05/17 00:35:14;;;;;;;4.13;3.20;;;16.00;15.10;;;;;;7366397;19;20015;-59
2022/05/17 00:37:45;;;;;;;7.20;3.80;;;16.00;15.40;;;;;;7361527;19;20025;-59
2022/05/17 00:40:15;;;;;;;6.13;3.53;;;15.90;15.40;;;;;;7366142;19;20000;-59
2022/05/17 00:42:45;;;;;;;4.43;3.22;;;15.90;15.30;;;;;;7390007;19;20034;-59
2022/05/17 00:45:15;;;;;;;5.55;3.60;;;15.90;15.40;;;;;;7364175;19;20006;-59
2022/05/17 00:47:53;;;;;;;8.30;3.78;;;15.90;15.40;;;;;;7361262;19;20090;-59
2022/05/17 00:50:29;;;;;;;8.88;3.28;;;15.90;15.10;;;;;;7365519;19;20579;-59
2022/05/17 00:53:04;;;;;;;6.45;3.40;;;15.90;14.80;;;;;;7368254;19;20014;-59
2022/05/17 00:55:39;;;;;;;7.32;3.50;;;15.90;14.70;;;;;;7364470;19;20472;-59
2022/05/17 00:58:15;;;;;;;8.82;3.72;;;15.70;15.70;;;;;;7361093;19;20049;-59
2022/05/17 01:00:50;;;;;;;6.93;3.60;;;15.50;17.70;;;;;;7389195;19;20085;-59
2022/05/17 01:03:24;;;;;;;6.18;3.65;;;15.40;18.80;;;;;;7367519;19;20010;-59
2022/05/17 01:05:57;;;;;;;7.63;3.83;;;15.10;21.30;;;;;;7364654;19;20014;-59
2022/05/17 01:08:27;;;;;;;7.05;3.92;;;14.90;23.40;;;;;;7356949;19;21287;-59
2022/05/17 01:10:57;;;;;;;9.88;4.00;;;14.90;25.00;;;;;;7365277;19;20469;-59
2022/05/17 01:16:11;;;;;;;6.85;4.00;;;14.80;27.40;;;;;;7364014;19;20014;-59
2022/05/17 01:18:45;;;;;;;7.18;4.50;;;14.70;27.70;;;;;;7381696;19;20026;-59
2022/05/17 01:21:17;;;;;;;6.82;3.80;;;14.70;27.80;;;;;;7365300;19;20014;-59
2022/05/17 01:23:47;;;;;;;5.93;3.90;;;14.70;28.20;;;;;;7366214;19;20010;-59
2022/05/17 01:26:20;;;;;;;7.72;4.35;;;14.80;28.00;;;;;;7364344;19;20010;-59
2022/05/17 01:28:50;;;;;;;6.03;3.65;;;14.90;27.60;;;;;;7359981;19;20011;-59
2022/05/17 01:31:22;;;;;;;6.70;4.43;;;14.70;27.90;;;;;;7365860;19;20021;-59
2022/05/17 01:33:52;;;;;;;5.18;4.13;;;14.60;28.60;;;;;;7386106;19;20010;-59
2022/05/17 01:36:24;;;;;;;5.47;3.85;;;14.50;29.40;;;;;;7363398;19;20108;-59
2022/05/17 01:38:54;;;;;;;5.75;4.10;;;14.40;30.50;;;;;;7360620;19;20077;-58
2022/05/17 01:41:25;;;;;;;9.18;4.70;;;14.50;30.80;;;;;;7366171;19;20082;-59
2022/05/17 01:43:55;;;;;;;8.98;4.50;;;14.50;30.10;;;;;;7363808;19;20014;-59
2022/05/17 01:46:25;;;;;;;8.57;4.70;;;14.50;30.00;;;;;;7361442;19;20105;-59
2022/05/17 01:48:56;;;;;;;9.65;4.78;;;14.60;29.30;;;;;;7362699;19;20039;-59
2022/05/17 01:51:29;;;;;;;8.85;4.90;;;14.60;28.60;;;;;;7386972;19;20366;-59
2022/05/17 01:53:59;;;;;;;8.50;5.30;;;14.70;27.50;;;;;;7362423;19;20036;-59
2022/05/17 01:56:29;;;;;;;7.28;4.72;;;14.90;26.50;;;;;;7361380;19;20528;-59
2022/05/17 01:58:58;;;;;;;7.82;4.60;;;14.80;25.40;;;;;;7359812;19;20455;-59
2022/05/17 02:01:29;;;;;;;7.07;4.30;;;14.80;25.80;;;;;;7365990;19;20014;-60
2022/05/17 02:03:59;;;;;;;7.57;4.63;;;14.80;25.70;;;;;;7363829;19;20010;-60
2022/05/17 02:06:31;;;;;;;11.07;4.90;;;14.70;26.00;;;;;;7382315;19;20536;-60
2022/05/17 02:09:01;;;;;;;7.05;4.53;;;14.70;26.90;;;;;;7358279;19;20454;-60
2022/05/17 02:11:31;;;;;;;8.25;4.70;;;14.60;27.70;;;;;;7365165;19;20094;-60
2022/05/17 02:14:01;;;;;;;8.93;4.80;;;14.50;28.00;;;;;;7362646;19;20014;-60
2022/05/17 02:16:31;;;;;;;7.05;4.95;;;14.40;28.60;;;;;;7362149;19;20017;-61
2022/05/17 02:19:01;;;;;;;8.95;4.75;;;14.40;29.40;;;;;;7358572;19;20348;-60
2022/05/17 02:21:34;;;;;;;7.82;5.03;;;14.30;30.20;;;;;;7385390;19;20024;-61
2022/05/17 02:24:04;;;;;;;7.43;5.20;;;14.30;30.80;;;;;;7363916;19;20068;-60
2022/05/17 02:26:35;;;;;;;9.80;5.10;;;14.30;30.20;;;;;;7361329;19;20006;-59
2022/05/17 02:29:05;;;;;;;8.50;5.05;;;14.30;30.40;;;;;;7356471;19;20035;-60
2022/05/17 02:31:34;;;;;;;9.68;4.55;;;14.20;30.50;;;;;;7365174;19;20016;-60
2022/05/17 02:34:04;;;;;;;7.18;4.55;;;14.20;30.90;;;;;;7361236;19;20018;-61
2022/05/17 02:36:40;;;;;;;8.85;5.20;;;14.20;31.10;;;;;;7383258;19;20022;-61
2022/05/17 02:39:09;;;;;;;8.80;5.63;;;14.20;32.10;;;;;;7359509;19;20521;-60
2022/05/17 02:41:39;;;;;;;9.73;5.07;;;14.10;32.00;;;;;;7364341;19;20043;-59
2022/05/17 02:44:09;;;;;;;8.82;4.88;;;14.20;32.40;;;;;;7363228;19;20006;-59
2022/05/17 02:46:39;;;;;;;7.07;5.35;;;14.20;32.20;;;;;;7360938;19;20097;-59
2022/05/17 02:49:10;;;;;;;8.18;6.03;;;14.30;32.60;;;;;;7362908;19;20014;-60
2022/05/17 02:51:42;;;;;;;7.82;5.38;;;14.30;32.30;;;;;;7389909;19;20038;-60
2022/05/17 02:54:12;;;;;;;7.47;5.28;;;14.30;32.30;;;;;;7376653;19;20010;-59
2022/05/17 02:56:42;;;;;;;10.18;5.82;;;14.20;32.30;;;;;;7376389;19;20017;-61
2022/05/17 02:59:12;;;;;;;9.52;6.40;;;14.30;33.00;;;;;;7372356;19;20017;-61
2022/05/17 03:01:42;;;;;;;10.95;6.57;;;14.30;33.10;;;;;;7376829;19;20011;-60
2022/05/17 03:04:13;;;;;;;12.80;6.75;;;14.30;33.40;;;;;;7376861;19;20014;-60
2022/05/17 03:06:47;;;;;;;11.95;6.28;;;14.30;33.00;;;;;;7396027;19;20032;-60
2022/05/17 03:09:17;;;;;;;;;;;14.30;33.10;;;;;;7372938;19;20078;-60
2022/05/17 03:11:47;;;;;;;10.52;6.75;;;14.30;33.50;;;;;;7377294;19;19933;-60
2022/05/17 03:14:19;;;;;;;11.88;6.20;;;14.20;33.40;;;;;;7376298;19;20015;-60
2022/05/17 03:16:49;;;;;;;13.75;6.75;;;14.30;33.50;;;;;;7375171;19;20074;-60
2022/05/17 03:19:20;;;;;;;11.10;7.30;;;14.20;33.70;;;;;;7372419;19;20022;-60
2022/05/17 03:21:53;;;;;;;14.20;7.30;;;14.20;34.00;;;;;;7398292;19;20102;-60
2022/05/17 03:24:22;;;;;;;12.02;7.95;;;14.20;33.10;;;;;;7376514;19;20110;-60
2022/05/17 03:27:12;;;;;;;12.05;7.15;;;14.20;33.90;;;;;;7373386;19;20383;-60
2022/05/17 03:29:42;;;;;;;11.15;7.53;;;14.20;34.10;;;;;;7371279;19;20006;-59
2022/05/17 03:32:12;;;;;;;11.75;7.07;;;14.10;34.20;;;;;;7376362;19;20011;-59
2022/05/17 03:34:42;;;;;;;11.68;7.07;;;14.10;34.70;;;;;;7375442;19;20010;-60
2022/05/17 03:37:17;;;;;;;10.07;7.10;;;14.10;34.40;;;;;;7373211;19;20008;-60
2022/05/17 03:39:48;;;;;;;12.30;8.10;;;14.10;34.90;;;;;;7393531;19;20017;-61
2022/05/17 03:42:17;;;;;;;10.85;7.93;;;14.10;34.90;;;;;;7376129;19;20041;-60
2022/05/17 03:44:47;;;;;;;11.85;7.53;;;14.10;35.20;;;;;;7373936;19;20382;-60
2022/05/17 03:47:17;;;;;;;13.07;8.05;;;14.10;34.40;;;;;;7373824;19;20015;-60
2022/05/17 03:49:47;;;;;;;12.63;8.63;;;14.10;35.00;;;;;;7371663;19;20021;-60
2022/05/17 03:52:19;;;;;;;15.82;7.97;;;14.20;34.40;;;;;;7376833;19;20021;-60
2022/05/17 03:54:49;;;;;;;15.98;8.40;;;14.20;34.50;;;;;;7395607;19;20022;-60
2022/05/17 03:57:19;;;;;;;14.35;8.93;;;14.20;34.60;;;;;;7369583;19;20007;-60
2022/05/17 03:59:49;;;;;;;13.07;8.40;;;14.30;32.90;;;;;;7370225;19;20056;-59
2022/05/17 04:02:19;;;;;;;11.43;7.65;;;14.40;32.40;;;;;;7373610;19;20010;-59
2022/05/17 04:04:49;;;;;;;13.88;7.90;;;14.90;29.80;;;;;;7366605;19;20017;-60
2022/05/17 04:07:21;;;;;;;13.23;7.10;;;15.60;22.20;;;;;;7366145;19;20899;-60
2022/05/17 04:09:53;;;;;;;12.27;7.18;;;15.90;18.60;;;;;;7386332;19;20022;-60
2022/05/17 04:12:22;;;;;;;11.88;7.15;;;16.30;15.20;;;;;;7369108;19;20109;-60
2022/05/17 04:14:52;;;;;;;11.07;7.20;;;16.40;11.00;;;;;;7366587;19;20060;-60
2022/05/17 04:17:22;;;;;;;11.07;6.90;;;16.80;8.80;;;;;;7365825;19;20109;-59
2022/05/17 04:19:52;;;;;;;12.80;7.18;;;17.00;6.40;;;;;;7364990;19;20039;-60
2022/05/17 04:22:24;;;;;;;15.65;7.38;;;16.00;12.00;;;;;;7368350;19;20029;-59
2022/05/17 04:24:55;;;;;;;10.68;6.80;;;16.90;9.40;;;;;;7378762;19;20019;-60
2022/05/17 04:27:26;;;;;;;13.07;6.57;;;17.50;5.40;;;;;;7385473;19;20017;-59
2022/05/17 04:29:56;;;;;;;7.65;6.13;;;18.30;1.50;;;;;;7363018;19;20011;-60
2022/05/17 04:32:26;;;;;;;10.98;6.13;;;18.60;1.00;;;;;;7365584;19;20098;-61
2022/05/17 04:34:55;;;;;;;12.85;6.28;;;18.90;1.00;;;;;;7358920;19;20509;-59
2022/05/17 04:37:28;;;;;;;14.70;6.55;;;18.50;1.00;;;;;;7360776;19;20876;-60
2022/05/17 04:39:58;;;;;;;10.15;6.63;;;18.90;1.00;;;;;;7362063;19;20384;-60
2022/05/17 04:42:28;;;;;;;15.60;6.35;;;19.30;1.00;;;;;;7387820;19;20018;-60
2022/05/17 04:44:58;;;;;;;9.38;6.07;;;19.30;1.00;;;;;;7364171;19;20018;-60
2022/05/17 04:47:28;;;;;;;10.55;5.90;;;19.80;1.00;;;;;;7363139;19;20480;-60
2022/05/17 04:49:58;;;;;;;13.02;6.70;;;20.70;1.00;;;;;;7363565;19;20010;-60
2022/05/17 04:52:30;;;;;;;13.90;7.30;;;20.40;1.00;;;;;;7364993;19;20018;-60
2022/05/17 04:55:00;;;;;;;12.00;6.72;;;20.60;1.00;;;;;;7364299;19;20035;-60
2022/05/17 04:57:30;;;;;;;8.55;6.20;;;20.90;1.00;;;;;;7383584;19;20018;-60
2022/05/17 05:00:01;;;;;;;10.18;6.15;;;20.80;1.00;;;;;;7362226;19;20077;-60
2022/05/17 05:02:31;;;;;;;10.32;6.18;;;20.90;1.00;;;;;;7367823;19;20017;-60
2022/05/17 05:05:01;;;;;;;9.35;5.55;;;20.50;1.00;;;;;;7364319;19;20017;-60
2022/05/17 05:07:33;;;;;;;9.05;5.45;;;21.10;1.00;;;;;;7362559;19;20018;-60
2022/05/17 05:10:03;;;;;;;11.93;5.80;;;21.30;1.00;;;;;;7362798;19;20017;-61
2022/05/17 05:12:34;;;;;;;10.13;6.13;;;21.40;1.00;;;;;;7386725;19;20462;-61
2022/05/17 05:15:04;;;;;;;10.25;6.38;;;21.70;1.00;;;;;;7362653;19;20022;-60
2022/05/17 05:17:35;;;;;;;10.05;5.93;;;21.30;1.00;;;;;;7362896;19;20070;-60
2022/05/17 05:20:06;;;;;;;11.13;6.25;;;21.90;1.00;;;;;;7362177;19;20102;-60
2022/05/17 05:22:39;;;;;;;9.90;5.38;;;22.20;1.00;;;;;;7366674;19;20014;-60
2022/05/17 05:25:13;;;;;;;10.63;5.55;;;22.60;1.00;;;;;;7363547;19;20023;-60
2022/05/17 05:27:43;;;;;;;9.77;5.95;;;22.50;1.00;;;;;;7381053;19;20040;-60
2022/05/17 05:30:16;;;;;;;12.60;5.47;;;22.40;1.00;;;;;;7362231;19;20354;-60
2022/05/17 05:32:46;;;;;;;19.83;6.18;;;21.80;1.00;;;;;;7364321;19;20455;-61
2022/05/17 05:35:18;;;;;;;13.07;5.32;;;22.50;1.00;;;;;;7361122;19;20007;-60
2022/05/17 05:37:51;;;;;;;11.05;6.20;;;23.10;1.00;;;;;;7356747;19;20010;-60
2022/05/17 05:40:21;;;;;;;9.38;6.72;;;23.10;1.00;;;;;;7363166;19;20037;-60
2022/05/17 05:42:53;;;;;;;12.90;6.47;;;22.50;1.00;;;;;;7387170;19;20014;-60
2022/05/17 05:45:24;;;;;;;10.35;6.18;;;23.00;1.00;;;;;;7362662;19;20121;-60
2022/05/17 05:47:54;;;;;;;17.35;6.35;;;21.80;1.00;;;;;;7354463;19;20513;-60
2022/05/17 05:50:26;;;;;;;10.48;5.88;;;22.00;1.00;;;;;;7361052;19;20010;-61
2022/05/17 05:53:05;;;;;;;9.38;5.80;;;21.10;1.00;;;;;;7364164;19;20031;-60
2022/05/17 05:55:37;;;;;;;11.05;6.35;;;19.60;1.00;;;;;;7362802;19;20017;-60
2022/05/17 05:58:08;;;;;;;9.35;5.68;;;19.50;1.00;;;;;;7357826;19;20010;-60
2022/05/17 06:00:39;;;;;;;11.02;6.13;;;19.30;1.00;;;;;;7386705;19;20483;-60
2022/05/17 06:03:09;;;;;;;9.85;6.30;;;18.80;1.00;;;;;;7365045;19;20465;-59
2022/05/17 06:05:39;;;;;;;9.02;5.93;;;19.10;1.00;;;;;;7360884;19;20066;-59
2022/05/17 06:08:14;;;;;;;11.63;5.40;;;19.60;1.00;;;;;;7355701;19;20012;-61
2022/05/17 06:10:45;;;;;;;12.88;5.72;;;20.20;1.00;;;;;;7364041;19;20403;-60
2022/05/17 06:13:16;;;;;;;9.70;6.00;;;20.60;1.00;;;;;;7364397;19;20025;-60
2022/05/17 06:15:48;;;;;;;10.93;5.97;;;21.30;1.00;;;;;;7382184;19;20044;-60
2022/05/17 06:18:18;;;;;;;9.15;6.22;;;22.50;1.00;;;;;;7353432;19;20245;-59
2022/05/17 06:20:52;;;;;;;9.05;5.53;;;22.40;1.00;;;;;;7363953;19;20014;-60
2022/05/17 06:23:26;;;;;;;12.05;5.40;;;22.50;1.00;;;;;;7363253;19;20707;-60
2022/05/17 06:25:56;;;;;;;8.85;5.72;;;22.20;1.00;;;;;;7357884;19;20011;-60
2022/05/17 06:28:26;;;;;;;8.20;5.13;;;22.00;1.00;;;;;;7354449;19;20095;-61
2022/05/17 06:30:56;;;;;;;9.85;5.50;;;21.60;1.00;;;;;;7363344;19;20028;-60
2022/05/17 06:33:26;;;;;;;8.07;5.80;;;22.50;1.00;;;;;;7384617;19;20014;-61
2022/05/17 06:35:57;;;;;;;9.82;5.90;;;21.20;1.00;;;;;;7360606;19;20018;-60
2022/05/17 06:38:30;;;;;;;9.25;5.55;;;20.40;1.00;;;;;;7354322;19;20014;-60
2022/05/17 06:41:00;;;;;;;9.48;5.80;;;20.00;1.00;;;;;;7362955;19;20006;-60
2022/05/17 06:43:30;;;;;;;10.68;6.10;;;19.90;1.00;;;;;;7363923;19;20034;-60
2022/05/17 06:45:59;;;;;;;15.25;6.47;;;20.00;1.00;;;;;;7358126;19;20038;-61
2022/05/17 06:48:29;;;;;;;8.75;5.53;;;20.00;1.00;;;;;;7376536;19;20021;-60
2022/05/17 06:51:04;;;;;;;14.30;6.53;;;20.40;1.00;;;;;;7362747;19;20011;-60
2022/05/17 06:53:37;;;;;;;9.95;5.32;;;20.10;1.00;;;;;;7362803;19;20501;-60
2022/05/17 06:56:08;;;;;;;9.45;5.40;;;20.20;1.00;;;;;;7360437;19;20015;-60
2022/05/17 06:58:38;;;;;;;13.57;4.88;;;20.10;1.00;;;;;;7355459;19;20016;-60
2022/05/17 07:01:08;;;;;;;9.05;5.25;;;20.50;1.00;;;;;;7362215;19;20014;-59
2022/05/17 07:03:38;;;;;;;9.13;5.03;;;20.40;1.00;;;;;;7384139;19;20077;-59
2022/05/17 07:06:08;;;;;;;10.90;6.10;;;20.40;1.00;;;;;;7359585;19;20477;-59
2022/05/17 07:08:40;;;;;;;7.70;5.38;;;20.50;1.00;;;;;;7355620;19;20010;-60
2022/05/17 07:13:52;;;;;;;8.15;5.60;;;20.50;1.00;;;;;;7362531;19;20422;-60
2022/05/17 07:16:22;;;;;;;9.20;5.63;;;20.70;1.00;;;;;;7357537;19;20419;-59
2022/05/17 07:18:52;;;;;;;9.02;6.47;;;20.40;1.00;;;;;;7378011;19;20018;-60
2022/05/17 07:21:42;;;;;;;12.35;5.93;;;20.30;1.00;;;;;;7361768;19;20014;-59
2022/05/17 07:24:17;;;;;;;8.07;6.05;;;20.90;1.00;;;;;;7360319;19;20086;-60
2022/05/17 07:26:46;;;;;;;8.40;6.00;;;20.30;1.00;;;;;;7357840;19;20014;-59
2022/05/17 07:29:36;;;;;;;8.07;5.60;;;20.80;1.00;;;;;;7355405;19;20462;-60
2022/05/17 07:32:08;;;;;;;9.40;5.65;;;21.10;1.00;;;;;;7360461;19;20448;-60
2022/05/17 07:34:38;;;;;;;8.40;5.55;;;21.20;1.00;;;;;;7361401;19;20031;-60
2022/05/17 07:37:07;;;;;;;9.48;5.63;;;21.20;1.00;;;;;;7358087;19;20324;-60
2022/05/17 07:39:40;;;;;;;8.38;5.60;;;21.10;1.00;;;;;;7383692;19;20477;-60
2022/05/17 07:42:11;;;;;;;11.15;5.28;;;20.90;1.00;;;;;;7366891;19;20926;-60
2022/05/17 07:44:41;;;;;;;10.93;4.88;;;21.50;1.00;;;;;;7366907;19;20032;-61
2022/05/17 07:47:17;;;;;;;7.38;4.60;;;21.60;1.00;;;;;;7365239;19;20487;-61
2022/05/17 07:49:47;;;;;;;7.90;4.22;;;21.50;1.00;;;;;;7363066;19;20011;-60
2022/05/17 07:52:17;;;;;;;7.38;4.20;;;21.80;1.00;;;;;;7368954;19;20025;-60
2022/05/17 07:54:49;;;;;;;5.93;4.28;;;21.80;1.00;;;;;;7388598;19;20015;-60
2022/05/17 07:57:19;;;;;;;6.07;4.22;;;21.00;1.00;;;;;;7363388;19;20354;-60
2022/05/17 07:59:50;;;;;;;9.23;4.15;;;21.80;1.00;;;;;;7363072;19;20078;-60
2022/05/17 08:02:20;;;;;;;7.78;3.95;;;21.60;1.00;;;;;;7368822;19;20014;-61
2022/05/17 08:04:51;;;;;;;7.25;4.20;;;22.00;1.00;;;;;;7367840;19;20014;-61
2022/05/17 08:07:20;;;;;;;7.90;4.18;;;22.10;1.00;;;;;;7365639;19;20142;-61
2022/05/17 08:09:53;;;;;;;8.75;3.83;;;22.10;1.00;;;;;;7384491;19;20469;-60
2022/05/17 08:12:24;;;;;;;7.60;4.22;;;22.20;1.00;;;;;;7369258;19;20013;-60
2022/05/17 08:14:53;;;;;;;8.00;4.40;;;22.60;1.00;;;;;;7365584;19;20458;-60
2022/05/17 08:17:23;;;;;;;7.82;3.70;;;22.80;1.00;;;;;;7364010;19;20006;-60
2022/05/17 08:19:53;;;;;;;5.93;3.70;;;22.60;1.00;;;;;;7362168;19;20754;-61
2022/05/17 08:22:23;;;;;;;5.47;3.55;;;22.80;1.00;;;;;;7368696;19;20015;-60
2022/05/17 08:27:41;;;;;;;5.05;3.45;;;22.40;1.00;;;;;;7362748;19;20038;-61
2022/05/17 08:30:15;;;;;;;6.50;3.87;;;22.50;1.00;;;;;;7363687;19;20015;-60
2022/05/17 08:35:31;;;;;;;5.72;3.30;;;22.70;1.00;;;;;;7366629;19;20086;-61
2022/05/17 08:38:01;;;;;;;9.70;3.45;;;23.10;1.00;;;;;;7358640;19;20082;-61
2022/05/17 08:40:39;;;;;;;5.72;3.67;;;22.60;1.00;;;;;;7363714;19;20094;-61
2022/05/17 08:43:19;;;;;;;6.93;3.75;;;22.50;1.00;;;;;;7367183;19;20010;-61
2022/05/17 08:46:03;;;;;;;9.82;3.60;;;22.60;1.00;;;;;;7386052;19;20529;-60
2022/05/17 08:48:46;;;;;;;6.78;3.05;;;22.90;1.00;;;;;;7359166;19;20007;-61
2022/05/17 08:51:20;;;;;;;8.20;3.08;;;22.50;1.00;;;;;;7365611;19;20014;-61
2022/05/17 08:53:50;;;;;;;7.55;4.05;;;22.90;1.00;;;;;;7365874;19;20037;-59
2022/05/17 08:56:23;;;;;;;6.18;3.00;;;22.30;1.00;;;;;;7363430;19;20015;-59
2022/05/17 08:58:56;;;;;;;4.75;3.10;;;22.70;1.00;;;;;;7361585;19;20010;-60
2022/05/17 09:01:34;;;;;;;7.38;3.40;;;23.00;1.00;;;;;;7366736;19;20025;-61
2022/05/17 09:04:19;;;;;;;8.27;3.67;;;23.40;1.00;;;;;;7365467;19;20011;-62
2022/05/17 09:06:56;;;;;;;9.32;3.42;;;23.90;1.00;;;;;;7384153;19;20022;-60
2022/05/17 09:09:30;;;;;;;7.40;3.33;;;24.00;1.00;;;;;;7360375;19;20127;-62
2022/05/17 09:12:10;;;;;;;7.45;3.50;;;23.70;1.00;;;;;;7365877;19;20014;-61
2022/05/17 09:14:48;;;;;;;7.03;2.72;;;23.50;1.00;;;;;;7363099;19;20079;-61
2022/05/17 09:17:24;;;;;;;4.22;2.78;;;23.60;1.00;;;;;;7361024;19;20021;-60
2022/05/17 09:19:55;;;;;;;6.05;3.05;;;23.20;1.00;;;;;;7360890;19;20017;-61
2022/05/17 09:22:26;;;;;;;7.82;3.33;;;23.40;1.00;;;;;;7366989;19;20010;-61
2022/05/17 09:25:00;;;;;;;6.75;3.05;;;23.70;1.00;;;;;;7365111;19;20051;-60
2022/05/17 09:27:39;;;;;;;7.60;3.05;;;23.50;1.00;;;;;;7383337;19;20283;-60
2022/05/17 09:30:13;;;;;;;9.55;3.83;;;24.00;1.00;;;;;;7361970;19;20011;-60
2022/05/17 09:32:46;;;;;;;7.80;3.15;;;24.10;1.00;;;;;;7365547;19;20105;-61
2022/05/17 09:35:20;;;;;;;6.90;3.50;;;24.20;1.00;;;;;;7364188;19;20074;-60
2022/05/17 09:37:54;;;;;;;7.35;3.47;;;23.70;1.00;;;;;;7357945;19;20577;-61
2022/05/17 09:40:27;;;;;;;5.32;3.00;;;23.40;1.00;;;;;;7361764;19;20032;-61
2022/05/17 09:43:04;;;;;;;7.22;3.08;;;23.50;1.00;;;;;;7365112;19;20025;-61
2022/05/17 09:45:55;;;;;;;7.88;3.70;;;23.80;1.00;;;;;;7385025;19;20017;-60
2022/05/17 09:48:32;;;;;;;5.45;3.80;;;23.60;1.00;;;;;;7356644;19;20017;-60
2022/05/17 09:53:47;;;;;;;6.70;3.80;;;23.70;1.00;;;;;;7363031;19;20445;-61
2022/05/17 09:56:18;;;;;;;9.13;3.50;;;24.10;1.00;;;;;;7362225;19;20017;-60
2022/05/17 09:58:50;;;;;;;8.95;4.07;;;23.80;1.00;;;;;;7357831;19;20020;-59
2022/05/17 10:01:24;;;;;;;8.02;3.85;;;23.30;1.00;;;;;;7362023;19;20021;-59
2022/05/17 10:04:03;;;;;;;11.18;3.78;;;23.20;1.00;;;;;;7382446;19;20026;-63
2022/05/17 10:06:37;;;;;;;6.97;3.80;;;23.40;1.00;;;;;;7383098;19;20021;-61
2022/05/17 10:09:08;;;;;;;6.90;4.13;;;23.70;1.00;;;;;;7357519;19;20776;-60
2022/05/17 10:11:57;;;;;;;7.35;4.40;;;23.90;1.00;;;;;;7363976;19;20312;-61
2022/05/17 10:14:36;;;;;;;5.65;4.10;;;24.00;1.00;;;;;;7362019;19;20021;-60
2022/05/17 10:17:10;;;;;;;7.43;4.20;;;23.90;1.00;;;;;;7360475;19;20014;-60
2022/05/17 10:19:46;;;;;;;4.97;3.17;;;24.70;1.00;;;;;;7358517;19;20022;-60
2022/05/17 10:22:24;;;;;;;5.57;4.10;;;24.40;1.00;;;;;;7363926;19;20141;-60
2022/05/17 10:25:00;;;;;;;5.88;3.70;;;23.50;1.00;;;;;;7378171;19;20371;-62
2022/05/17 10:27:35;;;;;;;5.38;3.95;;;23.70;1.00;;;;;;7382094;19;20086;-60
2022/05/17 10:30:12;;;;;;;6.60;4.03;;;24.10;1.00;;;;;;7356882;19;20439;-60
2022/05/17 10:32:48;;;;;;;7.60;4.10;;;23.80;1.00;;;;;;7363935;19;20015;-59
2022/05/17 10:35:24;;;;;;;7.65;3.30;;;23.20;1.00;;;;;;7363519;19;20352;-60
2022/05/17 10:38:04;;;;;;;5.68;3.15;;;24.00;1.00;;;;;;7356711;19;20011;-61
2022/05/17 10:40:38;;;;;;;5.53;3.30;;;24.60;1.00;;;;;;7361078;19;20011;-60
2022/05/17 10:43:09;;;;;;;4.20;3.10;;;24.40;1.00;;;;;;7363838;19;20021;-60
2022/05/17 10:45:41;;;;;;;7.88;3.10;;;23.80;1.00;;;;;;7383382;19;20495;-60
2022/05/17 10:48:20;;;;;;;6.18;3.05;;;23.90;1.00;;;;;;7355387;19;20007;-61
2022/05/17 10:50:56;;;;;;;6.07;3.28;;;23.90;1.00;;;;;;7362009;19;20017;-61
2022/05/17 10:53:41;;;;;;;6.07;2.95;;;24.30;1.00;;;;;;7363591;19;20010;-60
2022/05/17 10:56:23;;;;;;;4.57;2.83;;;24.20;1.00;;;;;;7358655;19;20090;-61
2022/05/17 10:59:01;;;;;;;4.93;3.08;;;24.70;1.00;;;;;;7353502;19;20475;-62
2022/05/17 11:01:40;;;;;;;3.90;2.58;;;25.00;1.00;;;;;;7360838;19;20486;-61
2022/05/17 11:04:25;;;;;;;5.68;3.15;;;25.40;1.00;;;;;;7362915;19;20078;-60
2022/05/17 11:07:07;;;;;;;4.93;2.70;;;25.40;1.00;;;;;;7362610;19;20479;-61
2022/05/17 11:09:47;;;;;;;6.30;2.60;;;25.40;1.00;;;;;;7379065;19;20029;-61
2022/05/17 11:12:20;;;;;;;5.30;2.78;;;25.60;1.00;;;;;;7359986;19;20011;-60
2022/05/17 11:14:53;;;;;;;5.10;2.30;;;24.80;1.00;;;;;;7365883;19;20014;-61
2022/05/17 11:17:37;;;;;;;3.00;2.22;;;25.00;1.00;;;;;;7365870;19;20082;-61
2022/05/17 11:20:17;;;;;;;5.30;2.00;;;24.80;1.00;;;;;;7365989;19;20557;-61
2022/05/17 11:22:51;;;;;;;3.63;2.45;;;24.70;1.00;;;;;;7369716;19;20038;-60
2022/05/17 11:25:53;;;;;;;2.10;1.70;;;24.50;1.00;;;;;;7366162;19;20017;-59
2022/05/17 11:28:50;;;;;;;3.17;1.85;;;24.30;1.00;;;;;;7356464;19;20014;-60
2022/05/17 11:31:32;;;;;;;7.20;2.50;;;24.70;1.00;;;;;;7368150;19;20447;-60
2022/05/17 11:34:35;;;;;;;3.85;2.33;;;24.30;1.00;;;;;;7367530;19;20031;-60
2022/05/17 11:37:08;;;;;;;2.80;1.90;;;24.50;1.00;;;;;;7363683;19;20018;-60
2022/05/17 11:39:48;;;;;;;4.18;1.98;;;24.70;1.00;;;;;;7381150;19;20176;-60
2022/05/17 11:42:31;;;;;;;3.15;2.10;;;24.60;1.00;;;;;;7366754;19;20014;-60
2022/05/17 11:45:22;;;;;;;5.32;2.38;;;24.80;1.00;;;;;;7366617;19;20015;-61
2022/05/17 11:47:58;;;;;;;4.30;2.17;;;25.10;1.00;;;;;;7361507;19;20085;-60
2022/05/17 11:50:59;;;;;;;4.40;2.10;;;24.80;1.00;;;;;;7363907;19;20093;-61
2022/05/17 11:53:45;;;;;;;4.25;1.70;;;25.10;1.00;;;;;;7366555;19;20020;-59
2022/05/17 11:56:36;;;;;;;2.75;1.65;;;25.20;1.00;;;;;;7365068;19;20561;-60
2022/05/17 11:59:38;;;;;;;5.38;1.88;;;24.60;1.00;;;;;;7359770;19;20015;-60
2022/05/17 12:02:11;;;;;;;4.05;1.70;;;24.50;1.00;;;;;;7367104;19;20039;-60
2022/05/17 12:04:44;;;;;;;3.33;1.80;;;25.20;1.00;;;;;;7365862;19;20740;-60
2022/05/17 12:07:31;;;;;;;2.83;1.63;;;25.40;1.00;;;;;;7364641;19;20030;-60
2022/05/17 12:10:13;;;;;;;2.45;1.50;;;25.30;1.00;;;;;;7360516;19;20100;-61
2022/05/17 12:13:00;;;;;;;6.78;1.90;;;25.50;1.00;;;;;;7389070;19;20056;-61
2022/05/17 12:15:52;;;;;;;4.53;1.45;;;25.20;1.00;;;;;;7365067;19;20011;-60
2022/05/17 12:18:43;;;;;;;4.93;1.42;;;25.40;1.00;;;;;;7358109;19;20124;-60
2022/05/17 12:21:29;;;;;;;3.72;1.60;;;25.50;1.00;;;;;;7366772;19;20515;-59
2022/05/17 12:24:09;;;;;;;3.53;1.50;;;24.70;1.00;;;;;;7362861;19;20082;-60
2022/05/17 12:26:53;;;;;;;6.15;1.40;;;24.80;1.00;;;;;;7365592;19;20018;-61
2022/05/17 12:32:10;;;;;;;3.40;1.50;;;25.50;1.00;;;;;;7367265;19;20010;-60
2022/05/17 12:34:40;;;;;;;3.28;1.67;;;25.70;1.00;;;;;;7366355;19;20046;-60
2022/05/17 12:37:14;;;;;;;4.20;1.50;;;25.30;1.00;;;;;;7364890;19;20015;-60
2022/05/17 12:45:23;;;;;;;1.85;1.38;;;25.00;1.00;;;;;;7364504;19;20007;-59
2022/05/17 12:47:56;;;;;;;3.08;1.50;;;25.40;1.00;;;;;;7360194;19;20014;-61
2022/05/17 12:50:42;;;;;;;4.90;1.63;;;25.10;1.00;;;;;;7361165;19;20010;-59
2022/05/17 12:53:19;;;;;;;3.33;1.60;;;25.10;1.00;;;;;;7367350;19;20010;-61
2022/05/17 12:56:06;;;;;;;3.05;1.73;;;25.10;1.00;;;;;;7364676;19;20487;-61
2022/05/17 12:58:37;;;;;;;2.80;1.60;;;25.30;1.00;;;;;;7357115;19;20010;-61
2022/05/17 13:01:09;;;;;;;2.17;1.30;;;25.50;1.00;;;;;;7365320;19;20018;-62
2022/05/17 13:03:46;;;;;;;5.32;1.58;;;25.40;1.00;;;;;;7387030;19;20384;-60
2022/05/17 13:06:16;;;;;;;3.28;1.33;;;25.40;1.00;;;;;;7364318;19;20007;-62
2022/05/17 13:08:47;;;;;;;4.50;1.50;;;25.50;1.00;;;;;;7358073;19;20474;-61
2022/05/17 13:11:26;;;;;;;2.92;1.45;;;25.70;1.00;;;;;;7364589;19;20067;-60
2022/05/17 13:14:00;;;;;;;4.32;1.67;;;25.40;1.00;;;;;;7366085;19;20006;-60
2022/05/17 13:16:33;;;;;;;5.45;1.20;;;25.00;1.00;;;;;;7363257;19;20415;-60
2022/05/17 13:19:06;;;;;;;2.63;1.30;;;25.30;1.00;;;;;;7355684;19;20018;-61
2022/05/17 13:21:40;;;;;;;3.63;1.60;;;25.30;1.00;;;;;;7387426;19;20021;-60
2022/05/17 13:24:25;;;;;;;3.30;1.40;;;25.50;1.00;;;;;;7364592;19;20278;-60
2022/05/17 13:27:00;;;;;;;2.88;1.40;;;25.60;1.00;;;;;;7362248;19;20500;-60
2022/05/17 13:29:32;;;;;;;2.65;1.52;;;25.90;1.00;;;;;;7358595;19;20014;-60
2022/05/17 13:32:05;;;;;;;3.28;1.52;;;25.50;1.00;;;;;;7363965;19;20483;-60
2022/05/17 13:34:39;;;;;;;4.10;1.58;;;25.80;1.00;;;;;;7363741;19;20066;-60
2022/05/17 13:37:14;;;;;;;2.83;1.50;;;25.50;1.00;;;;;;7363915;19;20018;-61
2022/05/17 13:39:48;;;;;;;3.85;1.45;;;25.60;1.00;;;;;;7376622;19;20032;-60
2022/05/17 13:42:27;;;;;;;2.90;1.40;;;25.60;1.00;;;;;;7364581;19;20082;-61
2022/05/17 13:44:59;;;;;;;4.13;1.30;;;25.20;1.00;;;;;;7362461;19;20031;-61